sensor_id;sensor_type;location;lat;lon;timestamp;pressure;altitude;pressure_sealevel;temperature;humidity
23427;BME280;41148;45.420;10.952;2023-05-21T00:02:21;100499.78;;;16.22;100.00
23427;BME280;41148;45.420;10.952;2023-05-21T00:04:49;100489.06;;;16.21;100.00
23427;BME280;41148;45.420;10.952;2023-05-21T00:07:17;100488.06;;;16.23;100.00
23427;BME280;41148;45.420;10.952;2023-05-21T00:09:45;100479.13;;;16.23;100.00
23427;BME280;41148;45.420;10.952;2023-05-21T00:12:12;100491.63;;;16.24;100.00
23427;BME280;41148;45.420;10.952;2023-05-21T00:14:39;100485.38;;;16.23;100.00
23427;BME280;41148;45.420;10.952;2023-05-21T00:17:07;100476.34;;;16.24;100.00
23427;BME280;41148;45.420;10.952;2023-05-21T00:19:34;100474.00;;;16.18;100.00
23427;BME280;41148;45.420;10.952;2023-05-21T00:22:02;100475.81;;;16.18;100.00
23427;BME280;41148;45.420;10.952;2023-05-21T00:24:30;100476.44;;;16.23;100.00
23427;BME280;41148;45.420;10.952;2023-05-21T00:26:58;100473.13;;;16.18;100.00
23427;BME280;41148;45.420;10.952;2023-05-21T00:29:25;100473.47;;;16.12;100.00
23427;BME280;41148;45.420;10.952;2023-05-21T00:31:53;100472.44;;;16.14;100.00
23427;BME280;41148;45.420;10.952;2023-05-21T00:34:22;100452.66;;;16.15;100.00
23427;BME280;41148;45.420;10.952;2023-05-21T00:36:49;100461.50;;;16.17;100.00
23427;BME280;41148;45.420;10.952;2023-05-21T00:39:18;100454.50;;;16.15;100.00
23427;BME280;41148;45.420;10.952;2023-05-21T00:41:47;100453.72;;;16.13;100.00
23427;BME280;41148;45.420;10.952;2023-05-21T00:44:14;100449.19;;;16.13;100.00
23427;BME280;41148;45.420;10.952;2023-05-21T00:46:44;100445.38;;;16.17;100.00
23427;BME280;41148;45.420;10.952;2023-05-21T00:49:15;100441.28;;;16.10;100.00
23427;BME280;41148;45.420;10.952;2023-05-21T00:51:43;100444.78;;;16.12;100.00
23427;BME280;41148;45.420;10.952;2023-05-21T00:54:11;100445.47;;;16.16;100.00
23427;BME280;41148;45.420;10.952;2023-05-21T00:56:39;100447.13;;;16.18;100.00
23427;BME280;41148;45.420;10.952;2023-05-21T00:59:06;100448.06;;;16.17;100.00
23427;BME280;41148;45.420;10.952;2023-05-21T01:01:34;100436.53;;;16.15;100.00
23427;BME280;41148;45.420;10.952;2023-05-21T01:04:03;100445.06;;;16.23;100.00
23427;BME280;41148;45.420;10.952;2023-05-21T01:06:31;100439.50;;;16.26;100.00
23427;BME280;41148;45.420;10.952;2023-05-21T01:09:02;100427.97;;;16.24;100.00
23427;BME280;41148;45.420;10.952;2023-05-21T01:11:41;100437.09;;;16.22;100.00
23427;BME280;41148;45.420;10.952;2023-05-21T01:14:11;100429.06;;;16.20;100.00
23427;BME280;41148;45.420;10.952;2023-05-21T01:16:40;100428.94;;;16.23;100.00
23427;BME280;41148;45.420;10.952;2023-05-21T01:19:17;100447.56;;;16.26;100.00
23427;BME280;41148;45.420;10.952;2023-05-21T01:21:49;100431.00;;;16.18;100.00
23427;BME280;41148;45.420;10.952;2023-05-21T01:24:17;100428.84;;;16.25;100.00
23427;BME280;41148;45.420;10.952;2023-05-21T01:26:45;100430.56;;;16.26;100.00
23427;BME280;41148;45.420;10.952;2023-05-21T01:29:13;100440.28;;;16.28;100.00
23427;BME280;41148;45.420;10.952;2023-05-21T01:34:42;100435.00;;;16.27;100.00
23427;BME280;41148;45.420;10.952;2023-05-21T01:39:43;100442.47;;;16.22;100.00
23427;BME280;41148;45.420;10.952;2023-05-21T01:42:14;100429.06;;;16.20;100.00
23427;BME280;41148;45.420;10.952;2023-05-21T01:44:43;100424.06;;;16.14;100.00
23427;BME280;41148;45.420;10.952;2023-05-21T01:47:13;100426.56;;;16.17;100.00
23427;BME280;41148;45.420;10.952;2023-05-21T01:49:42;100427.97;;;16.24;100.00
23427;BME280;41148;45.420;10.952;2023-05-21T01:52:10;100433.78;;;16.33;100.00
23427;BME280;41148;45.420;10.952;2023-05-21T01:54:39;100431.00;;;16.34;100.00
23427;BME280;41148;45.420;10.952;2023-05-21T01:57:06;100421.00;;;16.20;100.00
23427;BME280;41148;45.420;10.952;2023-05-21T01:59:34;100422.69;;;16.23;100.00
23427;BME280;41148;45.420;10.952;2023-05-21T02:02:02;100434.44;;;16.20;100.00
23427;BME280;41148;45.420;10.952;2023-05-21T02:04:30;100423.78;;;16.19;100.00
23427;BME280;41148;45.420;10.952;2023-05-21T02:06:57;100414.88;;;16.18;100.00
23427;BME280;41148;45.420;10.952;2023-05-21T02:09:25;100410.84;;;16.10;100.00
23427;BME280;41148;45.420;10.952;2023-05-21T02:11:52;100416.13;;;15.95;100.00
23427;BME280;41148;45.420;10.952;2023-05-21T02:14:20;100412.41;;;15.98;100.00
23427;BME280;41148;45.420;10.952;2023-05-21T02:16:47;100407.91;;;15.98;100.00
23427;BME280;41148;45.420;10.952;2023-05-21T02:19:15;100419.59;;;15.97;100.00
23427;BME280;41148;45.420;10.952;2023-05-21T02:21:42;100409.81;;;15.96;100.00
23427;BME280;41148;45.420;10.952;2023-05-21T02:24:10;100411.63;;;15.96;100.00
23427;BME280;41148;45.420;10.952;2023-05-21T02:26:38;100414.31;;;15.96;100.00
23427;BME280;41148;45.420;10.952;2023-05-21T02:29:05;100409.72;;;15.98;100.00
23427;BME280;41148;45.420;10.952;2023-05-21T02:31:33;100404.63;;;15.93;100.00
23427;BME280;41148;45.420;10.952;2023-05-21T02:34:00;100402.63;;;15.97;100.00
23427;BME280;41148;45.420;10.952;2023-05-21T02:36:28;100397.31;;;15.95;100.00
23427;BME280;41148;45.420;10.952;2023-05-21T02:38:59;100400.34;;;15.89;100.00
23427;BME280;41148;45.420;10.952;2023-05-21T02:41:28;100396.69;;;15.90;100.00
23427;BME280;41148;45.420;10.952;2023-05-21T02:43:55;100395.91;;;15.88;100.00
23427;BME280;41148;45.420;10.952;2023-05-21T02:46:22;100389.00;;;15.84;100.00
23427;BME280;41148;45.420;10.952;2023-05-21T02:48:51;100384.63;;;15.82;100.00
23427;BME280;41148;45.420;10.952;2023-05-21T02:51:19;100382.50;;;15.88;100.00
23427;BME280;41148;45.420;10.952;2023-05-21T02:53:47;100385.94;;;15.90;100.00
23427;BME280;41148;45.420;10.952;2023-05-21T02:56:14;100373.19;;;15.78;100.00
23427;BME280;41148;45.420;10.952;2023-05-21T02:58:42;100379.53;;;15.77;100.00
23427;BME280;41148;45.420;10.952;2023-05-21T03:01:09;100371.28;;;15.80;100.00
23427;BME280;41148;45.420;10.952;2023-05-21T03:03:37;100385.50;;;15.82;100.00
23427;BME280;41148;45.420;10.952;2023-05-21T03:06:05;100376.56;;;15.82;100.00
23427;BME280;41148;45.420;10.952;2023-05-21T03:08:36;100373.66;;;15.86;100.00
23427;BME280;41148;45.420;10.952;2023-05-21T03:11:08;100369.38;;;15.82;100.00
23427;BME280;41148;45.420;10.952;2023-05-21T03:13:36;100363.81;;;15.69;100.00
23427;BME280;41148;45.420;10.952;2023-05-21T03:16:04;100376.75;;;15.79;100.00
23427;BME280;41148;45.420;10.952;2023-05-21T03:18:31;100378.38;;;15.81;100.00
23427;BME280;41148;45.420;10.952;2023-05-21T03:20:59;100378.47;;;15.80;100.00
23427;BME280;41148;45.420;10.952;2023-05-21T03:23:27;100374.56;;;15.69;100.00
23427;BME280;41148;45.420;10.952;2023-05-21T03:25:54;100368.31;;;15.69;100.00
23427;BME280;41148;45.420;10.952;2023-05-21T03:28:22;100374.25;;;15.76;100.00
23427;BME280;41148;45.420;10.952;2023-05-21T03:30:49;100380.28;;;15.63;100.00
23427;BME280;41148;45.420;10.952;2023-05-21T03:33:36;100364.88;;;15.67;100.00
23427;BME280;41148;45.420;10.952;2023-05-21T03:36:33;100355.22;;;15.63;100.00
23427;BME280;41148;45.420;10.952;2023-05-21T03:39:02;100362.19;;;15.67;100.00
23427;BME280;41148;45.420;10.952;2023-05-21T03:41:32;100362.88;;;15.70;100.00
23427;BME280;41148;45.420;10.952;2023-05-21T03:44:07;100364.81;;;15.84;100.00
23427;BME280;41148;45.420;10.952;2023-05-21T03:46:49;100368.09;;;15.73;100.00
23427;BME280;41148;45.420;10.952;2023-05-21T03:49:25;100362.88;;;15.70;100.00
23427;BME280;41148;45.420;10.952;2023-05-21T03:51:55;100361.91;;;15.71;100.00
23427;BME280;41148;45.420;10.952;2023-05-21T03:54:23;100373.19;;;15.78;100.00
23427;BME280;41148;45.420;10.952;2023-05-21T03:56:55;100366.50;;;15.69;100.00
23427;BME280;41148;45.420;10.952;2023-05-21T03:59:23;100361.31;;;15.66;100.00
23427;BME280;41148;45.420;10.952;2023-05-21T04:01:51;100366.31;;;15.72;100.00
23427;BME280;41148;45.420;10.952;2023-05-21T04:04:18;100370.84;;;15.72;100.00
23427;BME280;41148;45.420;10.952;2023-05-21T04:06:47;100361.69;;;15.76;100.00
23427;BME280;41148;45.420;10.952;2023-05-21T04:09:14;100365.31;;;15.75;100.00
23427;BME280;41148;45.420;10.952;2023-05-21T04:11:42;100370.69;;;15.75;100.00
23427;BME280;41148;45.420;10.952;2023-05-21T04:14:10;100367.13;;;15.74;100.00
23427;BME280;41148;45.420;10.952;2023-05-21T04:16:37;100375.72;;;15.81;100.00
23427;BME280;41148;45.420;10.952;2023-05-21T04:19:05;100367.91;;;15.77;100.00
23427;BME280;41148;45.420;10.952;2023-05-21T04:21:33;100370.22;;;15.67;100.00
23427;BME280;41148;45.420;10.952;2023-05-21T04:24:00;100385.13;;;15.72;100.00
23427;BME280;41148;45.420;10.952;2023-05-21T04:26:42;100378.97;;;15.70;100.00
23427;BME280;41148;45.420;10.952;2023-05-21T04:29:10;100382.31;;;15.76;100.00
23427;BME280;41148;45.420;10.952;2023-05-21T04:31:38;100372.66;;;15.71;100.00
23427;BME280;41148;45.420;10.952;2023-05-21T04:34:05;100382.31;;;15.76;100.00
23427;BME280;41148;45.420;10.952;2023-05-21T04:36:33;100376.06;;;15.75;100.00
23427;BME280;41148;45.420;10.952;2023-05-21T04:39:00;100374.25;;;15.76;100.00
23427;BME280;41148;45.420;10.952;2023-05-21T04:41:28;100386.41;;;15.83;100.00
23427;BME280;41148;45.420;10.952;2023-05-21T04:44:02;100374.94;;;15.79;100.00
23427;BME280;41148;45.420;10.952;2023-05-21T04:46:31;100375.28;;;15.89;100.00
23427;BME280;41148;45.420;10.952;2023-05-21T04:49:03;100384.13;;;15.91;100.00
23427;BME280;41148;45.420;10.952;2023-05-21T04:51:30;100378.06;;;15.87;100.00
23427;BME280;41148;45.420;10.952;2023-05-21T04:53:58;100383.13;;;15.93;100.00
23427;BME280;41148;45.420;10.952;2023-05-21T04:56:25;100379.47;;;15.94;100.00
23427;BME280;41148;45.420;10.952;2023-05-21T04:58:53;100379.81;;;15.88;100.00
23427;BME280;41148;45.420;10.952;2023-05-21T05:01:21;100377.03;;;15.90;100.00
23427;BME280;41148;45.420;10.952;2023-05-21T05:03:50;100381.81;;;16.00;100.00
23427;BME280;41148;45.420;10.952;2023-05-21T05:06:17;100379.13;;;16.00;100.00
23427;BME280;41148;45.420;10.952;2023-05-21T05:08:45;100386.06;;;16.05;100.00
23427;BME280;41148;45.420;10.952;2023-05-21T05:11:14;100383.72;;;15.98;100.00
23427;BME280;41148;45.420;10.952;2023-05-21T05:13:42;100380.44;;;16.09;100.00
23427;BME280;41148;45.420;10.952;2023-05-21T05:16:09;100385.38;;;16.17;100.00
23427;BME280;41148;45.420;10.952;2023-05-21T05:18:37;100387.91;;;16.20;100.00
23427;BME280;41148;45.420;10.952;2023-05-21T05:21:05;100390.56;;;16.20;99.94
23427;BME280;41148;45.420;10.952;2023-05-21T05:23:32;100382.47;;;16.21;100.00
23427;BME280;41148;45.420;10.952;2023-05-21T05:25:59;100383.06;;;16.26;100.00
23427;BME280;41148;45.420;10.952;2023-05-21T05:28:27;100392.94;;;16.26;100.00
23427;BME280;41148;45.420;10.952;2023-05-21T05:30:54;100393.56;;;16.31;100.00
23427;BME280;41148;45.420;10.952;2023-05-21T05:33:24;100393.63;;;16.29;100.00
23427;BME280;41148;45.420;10.952;2023-05-21T05:35:52;100381.13;;;16.28;100.00
23427;BME280;41148;45.420;10.952;2023-05-21T05:38:20;100404.72;;;16.39;100.00
23427;BME280;41148;45.420;10.952;2023-05-21T05:40:48;100397.47;;;16.41;100.00
23427;BME280;41148;45.420;10.952;2023-05-21T05:43:15;100385.13;;;16.37;100.00
23427;BME280;41148;45.420;10.952;2023-05-21T05:45:43;100395.47;;;16.45;100.00
23427;BME280;41148;45.420;10.952;2023-05-21T05:48:13;100375.94;;;16.41;100.00
23427;BME280;41148;45.420;10.952;2023-05-21T05:50:41;100383.84;;;16.44;100.00
23427;BME280;41148;45.420;10.952;2023-05-21T05:53:08;100388.34;;;16.44;100.00
23427;BME280;41148;45.420;10.952;2023-05-21T05:55:36;100397.38;;;16.43;100.00
23427;BME280;41148;45.420;10.952;2023-05-21T05:58:04;100398.16;;;16.45;100.00
23427;BME280;41148;45.420;10.952;2023-05-21T06:00:38;100388.34;;;16.44;100.00
23427;BME280;41148;45.420;10.952;2023-05-21T06:03:06;100395.97;;;16.51;100.00
23427;BME280;41148;45.420;10.952;2023-05-21T06:05:33;100383.50;;;16.50;100.00
23427;BME280;41148;45.420;10.952;2023-05-21T06:08:01;100394.59;;;16.60;100.00
23427;BME280;41148;45.420;10.952;2023-05-21T06:10:29;100399.97;;;16.60;100.00
23427;BME280;41148;45.420;10.952;2023-05-21T06:12:56;100389.13;;;16.62;100.00
23427;BME280;41148;45.420;10.952;2023-05-21T06:15:24;100391.63;;;16.65;100.00
23427;BME280;41148;45.420;10.952;2023-05-21T06:17:51;100397.28;;;16.60;100.00
23427;BME280;41148;45.420;10.952;2023-05-21T06:20:19;100391.81;;;16.62;100.00
23427;BME280;41148;45.420;10.952;2023-05-21T06:22:47;100383.84;;;16.60;100.00
23427;BME280;41148;45.420;10.952;2023-05-21T06:25:15;100408.41;;;16.70;100.00
23427;BME280;41148;45.420;10.952;2023-05-21T06:27:45;100401.78;;;16.75;100.00
23427;BME280;41148;45.420;10.952;2023-05-21T06:30:26;100397.28;;;16.76;100.00
23427;BME280;41148;45.420;10.952;2023-05-21T06:33:03;100395.81;;;16.70;100.00
23427;BME280;41148;45.420;10.952;2023-05-21T06:35:31;100397.97;;;16.79;100.00
23427;BME280;41148;45.420;10.952;2023-05-21T06:38:01;100390.69;;;16.81;100.00
23427;BME280;41148;45.420;10.952;2023-05-21T06:40:29;100398.22;;;16.91;100.00
23427;BME280;41148;45.420;10.952;2023-05-21T06:42:58;100400.38;;;17.00;100.00
23427;BME280;41148;45.420;10.952;2023-05-21T06:45:38;100398.06;;;17.08;100.00
23427;BME280;41148;45.420;10.952;2023-05-21T06:48:27;100398.69;;;17.13;100.00
23427;BME280;41148;45.420;10.952;2023-05-21T06:50:55;100400.72;;;17.24;100.00
23427;BME280;41148;45.420;10.952;2023-05-21T06:53:22;100403.72;;;17.33;100.00
23427;BME280;41148;45.420;10.952;2023-05-21T06:55:50;100400.66;;;17.39;100.00
23427;BME280;41148;45.420;10.952;2023-05-21T06:58:35;100404.81;;;17.45;100.00
23427;BME280;41148;45.420;10.952;2023-05-21T07:01:03;100395.03;;;17.58;100.00
23427;BME280;41148;45.420;10.952;2023-05-21T07:03:31;100401.69;;;17.67;100.00
23427;BME280;41148;45.420;10.952;2023-05-21T07:05:58;100407.75;;;17.85;100.00
23427;BME280;41148;45.420;10.952;2023-05-21T07:08:26;100393.16;;;17.89;100.00
23427;BME280;41148;45.420;10.952;2023-05-21T07:10:54;100408.06;;;18.09;99.14
23427;BME280;41148;45.420;10.952;2023-05-21T07:13:22;100409.00;;;18.22;97.81
23427;BME280;41148;45.420;10.952;2023-05-21T07:15:50;100413.16;;;18.27;95.83
23427;BME280;41148;45.420;10.952;2023-05-21T07:18:17;100404.25;;;18.40;94.94
23427;BME280;41148;45.420;10.952;2023-05-21T07:20:45;100396.63;;;18.46;94.48
23427;BME280;41148;45.420;10.952;2023-05-21T07:23:15;100408.00;;;18.66;92.00
23427;BME280;41148;45.420;10.952;2023-05-21T07:25:43;100409.59;;;18.82;87.06
23427;BME280;41148;45.420;10.952;2023-05-21T07:28:12;100409.03;;;19.17;87.35
23427;BME280;41148;45.420;10.952;2023-05-21T07:30:40;100391.53;;;19.23;86.46
23427;BME280;41148;45.420;10.952;2023-05-21T07:33:13;100384.94;;;19.27;84.60
23427;BME280;41148;45.420;10.952;2023-05-21T07:35:41;100387.44;;;19.30;81.24
23427;BME280;41148;45.420;10.952;2023-05-21T07:38:08;100395.06;;;19.50;80.88
23427;BME280;41148;45.420;10.952;2023-05-21T07:40:36;100396.16;;;19.73;78.50
23427;BME280;41148;45.420;10.952;2023-05-21T07:43:04;100404.25;;;19.98;74.83
23427;BME280;41148;45.420;10.952;2023-05-21T07:45:33;100402.72;;;20.07;76.52
23427;BME280;41148;45.420;10.952;2023-05-21T07:48:01;100398.28;;;20.06;77.71
23427;BME280;41148;45.420;10.952;2023-05-21T07:50:31;100395.03;;;20.14;74.91
23427;BME280;41148;45.420;10.952;2023-05-21T07:52:59;100397.94;;;20.23;74.09
23427;BME280;41148;45.420;10.952;2023-05-21T07:55:26;100406.47;;;20.30;74.41
23427;BME280;41148;45.420;10.952;2023-05-21T07:57:54;100399.09;;;20.32;75.76
23427;BME280;41148;45.420;10.952;2023-05-21T08:00:27;100401.25;;;20.40;76.28
23427;BME280;41148;45.420;10.952;2023-05-21T08:02:56;100393.13;;;20.52;75.80
23427;BME280;41148;45.420;10.952;2023-05-21T08:05:25;100416.38;;;20.68;76.39
23427;BME280;41148;45.420;10.952;2023-05-21T08:07:52;100405.28;;;20.71;76.13
23427;BME280;41148;45.420;10.952;2023-05-21T08:10:21;100413.66;;;20.92;74.34
23427;BME280;41148;45.420;10.952;2023-05-21T08:12:50;100420.41;;;20.86;74.26
23427;BME280;41148;45.420;10.952;2023-05-21T08:15:19;100400.44;;;21.11;72.59
23427;BME280;41148;45.420;10.952;2023-05-21T08:17:46;100405.22;;;21.31;72.24
23427;BME280;41148;45.420;10.952;2023-05-21T08:20:15;100410.19;;;21.37;72.92
23427;BME280;41148;45.420;10.952;2023-05-21T08:22:44;100409.19;;;21.38;72.69
23427;BME280;41148;45.420;10.952;2023-05-21T08:25:12;100412.63;;;21.40;69.60
23427;BME280;41148;45.420;10.952;2023-05-21T08:27:40;100407.25;;;21.52;70.33
23427;BME280;41148;45.420;10.952;2023-05-21T08:30:09;100399.13;;;21.52;69.33
23427;BME280;41148;45.420;10.952;2023-05-21T08:32:38;100413.56;;;21.52;69.46
23427;BME280;41148;45.420;10.952;2023-05-21T08:35:05;100414.38;;;21.41;69.57
23427;BME280;41148;45.420;10.952;2023-05-21T08:37:56;100407.00;;;21.20;70.82
23427;BME280;41148;45.420;10.952;2023-05-21T08:40:39;100402.94;;;21.14;72.74
23427;BME280;41148;45.420;10.952;2023-05-21T08:43:07;100420.63;;;21.31;66.53
23427;BME280;41148;45.420;10.952;2023-05-21T08:45:52;100401.50;;;21.79;54.40
23427;BME280;41148;45.420;10.952;2023-05-21T08:48:25;100393.44;;;22.23;49.68
23427;BME280;41148;45.420;10.952;2023-05-21T08:50:54;100390.91;;;22.54;48.95
23427;BME280;41148;45.420;10.952;2023-05-21T08:53:26;100409.47;;;22.92;48.82
23427;BME280;41148;45.420;10.952;2023-05-21T08:55:56;100403.41;;;23.00;46.09
23427;BME280;41148;45.420;10.952;2023-05-21T08:58:32;100403.66;;;23.29;44.34
23427;BME280;41148;45.420;10.952;2023-05-21T09:01:01;100401.75;;;23.61;43.87
23427;BME280;41148;45.420;10.952;2023-05-21T09:03:31;100395.50;;;23.29;46.03
23427;BME280;41148;45.420;10.952;2023-05-21T09:05:59;100398.66;;;23.66;43.43
23427;BME280;41148;45.420;10.952;2023-05-21T09:08:34;100403.84;;;23.58;43.50
23427;BME280;41148;45.420;10.952;2023-05-21T09:11:10;100397.00;;;23.42;44.66
23427;BME280;41148;45.420;10.952;2023-05-21T09:13:44;100393.75;;;23.60;43.64
23427;BME280;41148;45.420;10.952;2023-05-21T09:16:23;100387.22;;;23.72;41.56
23427;BME280;41148;45.420;10.952;2023-05-21T09:18:51;100400.94;;;23.91;42.94
23427;BME280;41148;45.420;10.952;2023-05-21T09:21:23;100403.53;;;23.51;43.22
23427;BME280;41148;45.420;10.952;2023-05-21T09:23:56;100401.69;;;23.73;42.38
23427;BME280;41148;45.420;10.952;2023-05-21T09:26:24;100398.28;;;23.80;42.25
23427;BME280;41148;45.420;10.952;2023-05-21T09:28:58;100399.47;;;24.48;39.89
23427;BME280;41148;45.420;10.952;2023-05-21T09:31:28;100391.69;;;24.34;41.47
23427;BME280;41148;45.420;10.952;2023-05-21T09:33:57;100391.47;;;24.16;41.09
23427;BME280;41148;45.420;10.952;2023-05-21T09:36:25;100397.19;;;24.13;40.98
23427;BME280;41148;45.420;10.952;2023-05-21T09:38:53;100397.19;;;24.13;40.32
23427;BME280;41148;45.420;10.952;2023-05-21T09:41:30;100391.16;;;24.50;40.96
23427;BME280;41148;45.420;10.952;2023-05-21T09:43:59;100401.66;;;24.64;41.96
23427;BME280;41148;45.420;10.952;2023-05-21T09:46:36;100396.28;;;24.34;40.94
23427;BME280;41148;45.420;10.952;2023-05-21T09:49:04;100399.19;;;24.42;41.51
23427;BME280;41148;45.420;10.952;2023-05-21T09:51:31;100397.75;;;24.17;41.80
23427;BME280;41148;45.420;10.952;2023-05-21T09:53:59;100389.50;;;24.28;41.04
23427;BME280;41148;45.420;10.952;2023-05-21T09:56:27;100398.09;;;24.73;40.45
23427;BME280;41148;45.420;10.952;2023-05-21T09:58:58;100403.09;;;24.68;39.82
23427;BME280;41148;45.420;10.952;2023-05-21T10:01:29;100399.38;;;24.69;39.37
23427;BME280;41148;45.420;10.952;2023-05-21T10:03:59;100400.22;;;24.60;40.89
23427;BME280;41148;45.420;10.952;2023-05-21T10:06:28;100396.56;;;24.90;39.16
23427;BME280;41148;45.420;10.952;2023-05-21T10:08:59;100401.41;;;24.77;40.77
23427;BME280;41148;45.420;10.952;2023-05-21T10:11:33;100400.72;;;24.94;38.80
23427;BME280;41148;45.420;10.952;2023-05-21T10:16:34;100397.81;;;24.76;39.84
23427;BME280;41148;45.420;10.952;2023-05-21T10:19:02;100409.50;;;24.48;41.03
23427;BME280;41148;45.420;10.952;2023-05-21T10:21:31;100392.47;;;24.55;40.30
23427;BME280;41148;45.420;10.952;2023-05-21T10:24:00;100400.31;;;24.49;41.23
23427;BME280;41148;45.420;10.952;2023-05-21T10:26:28;100406.97;;;24.66;40.74
23427;BME280;41148;45.420;10.952;2023-05-21T10:28:56;100385.75;;;24.79;40.17
23427;BME280;41148;45.420;10.952;2023-05-21T10:31:27;100394.09;;;24.97;40.71
23427;BME280;41148;45.420;10.952;2023-05-21T10:33:55;100397.84;;;24.96;40.95
23427;BME280;41148;45.420;10.952;2023-05-21T10:36:29;100408.00;;;24.74;40.46
23427;BME280;41148;45.420;10.952;2023-05-21T10:38:59;100390.59;;;24.56;41.51
23427;BME280;41148;45.420;10.952;2023-05-21T10:41:27;100386.19;;;24.24;42.18
23427;BME280;41148;45.420;10.952;2023-05-21T10:44:20;100398.94;;;24.64;42.06
23427;BME280;41148;45.420;10.952;2023-05-21T10:49:48;100392.63;;;24.64;41.86
23427;BME280;41148;45.420;10.952;2023-05-21T10:52:33;100379.22;;;24.41;41.38
23427;BME280;41148;45.420;10.952;2023-05-21T10:55:12;100372.94;;;24.41;41.17
23427;BME280;41148;45.420;10.952;2023-05-21T11:00:48;100383.03;;;24.69;39.27
23427;BME280;41148;45.420;10.952;2023-05-21T11:03:16;100392.94;;;24.90;37.88
23427;BME280;41148;45.420;10.952;2023-05-21T11:05:51;100373.44;;;24.84;37.34
23427;BME280;41148;45.420;10.952;2023-05-21T11:08:30;100362.69;;;24.83;37.56
23427;BME280;41148;45.420;10.952;2023-05-21T11:10:58;100368.44;;;25.09;36.88
23427;BME280;41148;45.420;10.952;2023-05-21T11:13:27;100373.19;;;25.07;37.24
23427;BME280;41148;45.420;10.952;2023-05-21T11:21:09;100378.09;;;25.03;37.41
23427;BME280;41148;45.420;10.952;2023-05-21T11:24:17;100361.28;;;25.18;38.16
23427;BME280;41148;45.420;10.952;2023-05-21T11:29:16;100360.41;;;25.27;35.62
23427;BME280;41148;45.420;10.952;2023-05-21T11:31:45;100364.16;;;25.06;36.38
23427;BME280;41148;45.420;10.952;2023-05-21T11:34:21;100360.00;;;25.22;36.37
23427;BME280;41148;45.420;10.952;2023-05-21T11:39:50;100351.97;;;25.20;35.97
23427;BME280;41148;45.420;10.952;2023-05-21T11:42:33;100358.72;;;25.16;37.18
23427;BME280;41148;45.420;10.952;2023-05-21T11:45:02;100356.97;;;25.25;36.88
23427;BME280;41148;45.420;10.952;2023-05-21T11:47:31;100340.19;;;25.29;36.05
23427;BME280;41148;45.420;10.952;2023-05-21T11:50:00;100336.72;;;25.27;36.90
23427;BME280;41148;45.420;10.952;2023-05-21T11:52:29;100356.53;;;25.39;35.73
23427;BME280;41148;45.420;10.952;2023-05-21T11:54:57;100355.25;;;25.33;36.62
23427;BME280;41148;45.420;10.952;2023-05-21T11:57:27;100349.25;;;25.30;37.92
23427;BME280;41148;45.420;10.952;2023-05-21T12:00:00;100343.63;;;25.31;37.11
23427;BME280;41148;45.420;10.952;2023-05-21T12:02:43;100353.09;;;25.27;38.27
23427;BME280;41148;45.420;10.952;2023-05-21T12:05:11;100337.31;;;25.31;37.89
23427;BME280;41148;45.420;10.952;2023-05-21T12:07:39;100348.91;;;25.43;37.53
23427;BME280;41148;45.420;10.952;2023-05-21T12:10:07;100343.00;;;25.57;37.60
23427;BME280;41148;45.420;10.952;2023-05-21T12:12:34;100345.06;;;25.35;38.48
23427;BME280;41148;45.420;10.952;2023-05-21T12:15:16;100346.19;;;25.43;37.99
23427;BME280;41148;45.420;10.952;2023-05-21T12:17:43;100341.06;;;25.30;38.49
23427;BME280;41148;45.420;10.952;2023-05-21T12:20:15;100340.00;;;25.50;38.13
23427;BME280;41148;45.420;10.952;2023-05-21T12:22:43;100344.16;;;25.45;38.83
23427;BME280;41148;45.420;10.952;2023-05-21T12:25:11;100330.66;;;25.53;36.79
23427;BME280;41148;45.420;10.952;2023-05-21T12:27:38;100337.47;;;25.39;37.12
23427;BME280;41148;45.420;10.952;2023-05-21T12:30:08;100333.72;;;25.40;37.93
23427;BME280;41148;45.420;10.952;2023-05-21T12:32:39;100339.19;;;25.30;38.19
23427;BME280;41148;45.420;10.952;2023-05-21T12:35:19;100338.69;;;25.54;36.88
23427;BME280;41148;45.420;10.952;2023-05-21T12:37:47;100325.34;;;25.61;37.06
23427;BME280;41148;45.420;10.952;2023-05-21T12:40:17;100335.38;;;25.70;36.10
23427;BME280;41148;45.420;10.952;2023-05-21T12:42:45;100332.06;;;25.66;36.82
23427;BME280;41148;45.420;10.952;2023-05-21T12:45:13;100332.69;;;25.51;37.75
23427;BME280;41148;45.420;10.952;2023-05-21T12:47:46;100327.06;;;25.52;37.15
23427;BME280;41148;45.420;10.952;2023-05-21T12:50:19;100331.13;;;25.48;37.61
23427;BME280;41148;45.420;10.952;2023-05-21T12:52:47;100334.66;;;25.78;36.95
23427;BME280;41148;45.420;10.952;2023-05-21T12:55:15;100325.47;;;25.79;36.07
23427;BME280;41148;45.420;10.952;2023-05-21T12:57:43;100330.34;;;25.75;36.12
23427;BME280;41148;45.420;10.952;2023-05-21T13:00:11;100324.72;;;25.67;36.43
23427;BME280;41148;45.420;10.952;2023-05-21T13:02:40;100331.53;;;25.53;37.51
23427;BME280;41148;45.420;10.952;2023-05-21T13:05:18;100325.25;;;25.43;38.43
23427;BME280;41148;45.420;10.952;2023-05-21T13:07:45;100328.19;;;25.69;37.37
23427;BME280;41148;45.420;10.952;2023-05-21T13:10:14;100315.13;;;25.73;37.26
23427;BME280;41148;45.420;10.952;2023-05-21T13:12:45;100315.00;;;25.55;37.61
23427;BME280;41148;45.420;10.952;2023-05-21T13:15:13;100323.09;;;25.37;38.91